Time;durP1;ratioP1;P1;durP2;ratioP2;P2;SDS_P1;SDS_P2;PMS_P1;PMS_P2;Temp;Humidity;BMP_temperature;BMP_pressure;BME280_temperature;BME280_humidity;BME280_pressure;Samples;Min_cycle;Max_cycle;Signal;HPM_P1;HPM_P2
2022/09/22 00:02:08;;;;;;;;;;;;;;;;;;5081844;28;1202;-67
2022/09/22 00:04:33;;;;;;;;;;;;;;;;;;5079869;22;3782;-77
2022/09/22 00:06:58;;;;;;;;;;;;;;;;;;5061760;28;1052;-77
2022/09/22 00:09:23;;;;;;;;;;;;;;;;;;5061712;28;1914;-77
2022/09/22 00:11:50;;;;;;;;;;;;;;;;;;5061789;28;914;-77
2022/09/22 00:14:26;;;;;;;;;;;;;;;;;;5061636;28;1164;-77
2022/09/22 00:16:52;;;;;;;;;;;;;;;;;;5061676;28;933;-77
2022/09/22 00:19:19;;;;;;;;;;;;;;;;;;5061638;28;810;-77
2022/09/22 00:21:45;;;;;;;;;;;;;;;;;;5061629;28;873;-77
2022/09/22 00:24:10;;;;;;;;;;;;;;;;;;5061557;28;1153;-76
2022/09/22 00:26:36;;;;;;;;;;;;;;;;;;5060967;28;894;-76
2022/09/22 00:29:02;;;;;;;;;;;;;;;;;;5061390;28;1889;-77
2022/09/22 00:31:27;;;;;;;;;;;;;;;;;;5061726;28;818;-76
2022/09/22 00:33:53;;;;;;;;;;;;;;;;;;5061160;28;1239;-76
2022/09/22 00:36:20;;;;;;;;;;;;;;;;;;5060798;28;1005;-76
2022/09/22 00:38:45;;;;;;;;;;;;;;;;;;5043919;28;850;-76
2022/09/22 00:41:19;;;;;;;;;;;;;;;;;;5043487;28;1412;-76
2022/09/22 00:43:46;;;;;;;;;;;;;;;;;;5061461;28;1219;-76
2022/09/22 00:46:14;;;;;;;;;;;;;;;;;;5060766;28;1005;-76
2022/09/22 00:48:43;;;;;;;;;;;;;;;;;;5061207;28;1953;-76
2022/09/22 00:51:09;;;;;;;;;;;;;;;;;;5061141;28;834;-76
2022/09/22 00:53:34;;;;;;;;;;;;;;;;;;5061130;28;1231;-76
2022/09/22 00:55:59;;;;;;;;;;;;;;;;;;5060402;28;787;-76
2022/09/22 00:58:27;;;;;;;;;;;;;;;;;;5061121;28;873;-76
2022/09/22 01:00:52;;;;;;;;;;;;;;;;;;5061084;28;1060;-76
2022/09/22 01:03:19;;;;;;;;;;;;;;;;;;5060304;28;1208;-76
2022/09/22 01:05:46;;;;;;;;;;;;;;;;;;5060369;28;815;-76
2022/09/22 01:08:12;;;;;;;;;;;;;;;;;;5061106;28;1951;-76
2022/09/22 01:10:37;;;;;;;;;;;;;;;;;;5060937;28;850;-76
2022/09/22 01:13:18;;;;;;;;;;;;;;;;;;5060901;28;1168;-75
2022/09/22 01:15:52;;;;;;;;;;;;;;;;;;5060194;28;969;-76
2022/09/22 01:18:23;;;;;;;;;;;;;;;;;;5060997;28;1005;-76
2022/09/22 01:20:51;;;;;;;;;;;;;;;;;;5060995;28;916;-76
2022/09/22 01:23:31;;;;;;;;;;;;;;;;;;5060813;28;1248;-76
2022/09/22 01:26:07;;;;;;;;;;;;;;;;;;5060020;28;819;-76
2022/09/22 01:28:51;;;;;;;;;;;;;;;;;;5060797;28;1882;-76
2022/09/22 01:31:22;;;;;;;;;;;;;;;;;;5060767;28;815;-76
2022/09/22 01:33:49;;;;;;;;;;;;;;;;;;5060642;28;1313;-76
2022/09/22 01:36:23;;;;;;;;;;;;;;;;;;5060220;28;1068;-76
2022/09/22 01:38:57;;;;;;;;;;;;;;;;;;5060708;28;994;-76
2022/09/22 01:41:25;;;;;;;;;;;;;;;;;;5060545;28;791;-76
2022/09/22 01:43:54;;;;;;;;;;;;;;;;;;5060455;28;1156;-76
2022/09/22 01:46:23;;;;;;;;;;;;;;;;;;5059879;28;993;-76
2022/09/22 01:48:51;;;;;;;;;;;;;;;;;;5060395;28;1890;-77
2022/09/22 01:51:42;;;;;;;;;;;;;;;;;;5060432;28;993;-76
2022/09/22 01:54:17;;;;;;;;;;;;;;;;;;5004722;28;1216;-76
2022/09/22 01:56:47;;;;;;;;;;;;;;;;;;5059743;28;914;-76
2022/09/22 01:59:13;;;;;;;;;;;;;;;;;;5060474;28;957;-76
2022/09/22 02:01:41;;;;;;;;;;;;;;;;;;5060268;28;910;-76
2022/09/22 02:04:18;;;;;;;;;;;;;;;;;;5060098;28;1250;-76
2022/09/22 02:06:49;;;;;;;;;;;;;;;;;;5059570;28;815;-76
2022/09/22 02:09:17;;;;;;;;;;;;;;;;;;5060291;28;1897;-76
2022/09/22 02:11:42;;;;;;;;;;;;;;;;;;5060223;28;865;-76
2022/09/22 02:14:07;;;;;;;;;;;;;;;;;;5060957;28;1250;-76
2022/09/22 02:16:33;;;;;;;;;;;;;;;;;;5062894;28;913;-76
2022/09/22 02:19:01;;;;;;;;;;;;;;;;;;5063784;28;941;-76
2022/09/22 02:21:27;;;;;;;;;;;;;;;;;;5063456;28;1068;-76
2022/09/22 02:23:52;;;;;;;;;;;;;;;;;;5063477;28;1148;-76
2022/09/22 02:26:22;;;;;;;;;;;;;;;;;;5062719;28;890;-76
2022/09/22 02:28:50;;;;;;;;;;;;;;;;;;5063435;28;1900;-76
2022/09/22 02:31:15;;;;;;;;;;;;;;;;;;5045493;28;831;-76
2022/09/22 02:33:41;;;;;;;;;;;;;;;;;;5063184;28;1223;-76
2022/09/22 02:36:18;;;;;;;;;;;;;;;;;;5062676;28;787;-76
2022/09/22 02:38:46;;;;;;;;;;;;;;;;;;5063365;28;902;-76
2022/09/22 02:41:19;;;;;;;;;;;;;;;;;;5063101;28;1060;-76
2022/09/22 02:43:45;;;;;;;;;;;;;;;;;;5063057;28;1295;-76
2022/09/22 02:46:17;;;;;;;;;;;;;;;;;;5062553;28;807;-76
2022/09/22 02:48:46;;;;;;;;;;;;;;;;;;5063044;28;1890;-76
2022/09/22 02:51:12;;;;;;;;;;;;;;;;;;5063171;28;997;-76
2022/09/22 02:53:37;;;;;;;;;;;;;;;;;;5062802;28;1176;-76
2022/09/22 02:56:03;;;;;;;;;;;;;;;;;;5062323;28;1052;-76
2022/09/22 02:58:28;;;;;;;;;;;;;;;;;;5063183;28;787;-76
2022/09/22 03:00:53;;;;;;;;;;;;;;;;;;5062969;28;917;-76
2022/09/22 03:03:18;;;;;;;;;;;;;;;;;;5062463;28;1160;-76
2022/09/22 03:05:44;;;;;;;;;;;;;;;;;;5062451;28;949;-76
2022/09/22 03:08:09;;;;;;;;;;;;;;;;;;5062723;28;1979;-76
2022/09/22 03:10:34;;;;;;;;;;;;;;;;;;5062799;28;997;-76
2022/09/22 03:12:59;;;;;;;;;;;;;;;;;;5062610;28;1262;-76
2022/09/22 03:15:25;;;;;;;;;;;;;;;;;;5062158;28;878;-76
2022/09/22 03:17:50;;;;;;;;;;;;;;;;;;5062530;28;935;-76
2022/09/22 03:20:15;;;;;;;;;;;;;;;;;;5062857;28;795;-76
2022/09/22 03:22:41;;;;;;;;;;;;;;;;;;5062608;28;1156;-76
2022/09/22 03:25:07;;;;;;;;;;;;;;;;;;5061608;28;910;-76
2022/09/22 03:27:32;;;;;;;;;;;;;;;;;;5062563;28;814;-76
2022/09/22 03:29:57;;;;;;;;;;;;;;;;;;5062509;28;1894;-76
2022/09/22 03:32:22;;;;;;;;;;;;;;;;;;5062282;28;791;-76
2022/09/22 03:34:48;;;;;;;;;;;;;;;;;;5061684;28;1168;-76
2022/09/22 03:37:14;;;;;;;;;;;;;;;;;;5062363;28;953;-76
2022/09/22 03:39:39;;;;;;;;;;;;;;;;;;5062246;28;1005;-76
2022/09/22 03:42:04;;;;;;;;;;;;;;;;;;5062353;28;879;-76
2022/09/22 03:44:29;;;;;;;;;;;;;;;;;;5061371;28;1216;-76
2022/09/22 03:46:54;;;;;;;;;;;;;;;;;;5062054;28;1033;-76
2022/09/22 03:49:20;;;;;;;;;;;;;;;;;;5062013;28;1956;-76
2022/09/22 03:51:45;;;;;;;;;;;;;;;;;;5062229;28;850;-76
2022/09/22 03:54:11;;;;;;;;;;;;;;;;;;5061743;28;1176;-76
2022/09/22 03:56:37;;;;;;;;;;;;;;;;;;5061465;28;905;-76
2022/09/22 03:59:02;;;;;;;;;;;;;;;;;;5062129;28;870;-76
2022/09/22 04:01:28;;;;;;;;;;;;;;;;;;5062041;28;981;-76
2022/09/22 04:03:53;;;;;;;;;;;;;;;;;;5061620;28;1231;-76
2022/09/22 04:06:19;;;;;;;;;;;;;;;;;;5061530;28;1000;-76
2022/09/22 04:08:44;;;;;;;;;;;;;;;;;;5061697;28;1903;-76
2022/09/22 04:11:09;;;;;;;;;;;;;;;;;;5061951;28;826;-76
2022/09/22 04:13:35;;;;;;;;;;;;;;;;;;5061684;28;1251;-76
2022/09/22 04:16:01;;;;;;;;;;;;;;;;;;5061094;28;834;-76
2022/09/22 04:18:27;;;;;;;;;;;;;;;;;;5061637;28;933;-76
2022/09/22 04:20:55;;;;;;;;;;;;;;;;;;5061975;28;819;-76
2022/09/22 04:23:20;;;;;;;;;;;;;;;;;;5061511;28;1180;-76
2022/09/22 04:25:45;;;;;;;;;;;;;;;;;;5060840;28;898;-76
2022/09/22 04:28:10;;;;;;;;;;;;;;;;;;5061583;28;1963;-76
2022/09/22 04:30:36;;;;;;;;;;;;;;;;;;5061480;28;926;-76
2022/09/22 04:33:01;;;;;;;;;;;;;;;;;;5061516;28;1270;-75
2022/09/22 04:35:27;;;;;;;;;;;;;;;;;;5060682;28;815;-76
2022/09/22 04:37:53;;;;;;;;;;;;;;;;;;5060590;28;831;-76
2022/09/22 04:40:18;;;;;;;;;;;;;;;;;;5061431;28;960;-76
2022/09/22 04:42:44;;;;;;;;;;;;;;;;;;5061289;28;1171;-76
2022/09/22 04:45:09;;;;;;;;;;;;;;;;;;5060545;28;854;-76
2022/09/22 04:47:35;;;;;;;;;;;;;;;;;;5061324;28;1024;-76
2022/09/22 04:50:00;;;;;;;;;;;;;;;;;;5061074;28;1897;-76
2022/09/22 04:52:25;;;;;;;;;;;;;;;;;;5061171;28;977;-76
2022/09/22 04:54:50;;;;;;;;;;;;;;;;;;5060247;28;1164;-76
2022/09/22 04:57:16;;;;;;;;;;;;;;;;;;5061235;28;894;-76
2022/09/22 04:59:41;;;;;;;;;;;;;;;;;;5060922;28;878;-76
2022/09/22 05:02:06;;;;;;;;;;;;;;;;;;5061122;28;981;-76
2022/09/22 05:04:31;;;;;;;;;;;;;;;;;;5059997;28;1160;-76
2022/09/22 05:06:56;;;;;;;;;;;;;;;;;;5060959;28;1053;-76
2022/09/22 05:09:22;;;;;;;;;;;;;;;;;;5061077;28;1910;-76
2022/09/22 05:11:47;;;;;;;;;;;;;;;;;;5061046;28;846;-77
2022/09/22 05:14:13;;;;;;;;;;;;;;;;;;5060834;28;1133;-77
2022/09/22 05:16:38;;;;;;;;;;;;;;;;;;5060032;28;802;-77
2022/09/22 05:19:03;;;;;;;;;;;;;;;;;;5060858;28;1029;-77
2022/09/22 05:21:29;;;;;;;;;;;;;;;;;;5042707;28;1164;-77
2022/09/22 05:23:54;;;;;;;;;;;;;;;;;;5060790;28;1168;-76
2022/09/22 05:26:20;;;;;;;;;;;;;;;;;;5059177;28;882;-76
2022/09/22 05:28:45;;;;;;;;;;;;;;;;;;5060916;28;1906;-76
2022/09/22 05:31:10;;;;;;;;;;;;;;;;;;5060542;28;1044;-76
2022/09/22 05:33:35;;;;;;;;;;;;;;;;;;5060725;28;1187;-76
2022/09/22 05:36:01;;;;;;;;;;;;;;;;;;5060237;28;783;-76
2022/09/22 05:38:26;;;;;;;;;;;;;;;;;;5060691;28;1020;-76
2022/09/22 05:40:51;;;;;;;;;;;;;;;;;;5060576;28;969;-77
2022/09/22 05:43:16;;;;;;;;;;;;;;;;;;5060523;28;1184;-76
2022/09/22 05:45:43;;;;;;;;;;;;;;;;;;5059738;28;806;-76
2022/09/22 05:48:08;;;;;;;;;;;;;;;;;;5061498;28;1905;-76
2022/09/22 05:50:33;;;;;;;;;;;;;;;;;;5063973;28;977;-76
2022/09/22 05:53:03;;;;;;;;;;;;;;;;;;5063763;28;1267;-76
2022/09/22 05:55:28;;;;;;;;;;;;;;;;;;5063302;28;807;-76
2022/09/22 05:57:56;;;;;;;;;;;;;;;;;;5063922;28;794;-76
2022/09/22 06:00:21;;;;;;;;;;;;;;;;;;5063877;28;872;-76
2022/09/22 06:02:47;;;;;;;;;;;;;;;;;;5063571;28;1125;-75
2022/09/22 06:05:12;;;;;;;;;;;;;;;;;;5090415;22;3552;-68
2022/09/22 06:07:37;;;;;;;;;;;;;;;;;;5083781;28;889;-68
2022/09/22 06:10:02;;;;;;;;;;;;;;;;;;5083716;28;1960;-68
2022/09/22 06:12:28;;;;;;;;;;;;;;;;;;5083713;28;941;-68
2022/09/22 06:14:53;;;;;;;;;;;;;;;;;;5070296;28;1240;-68
2022/09/22 06:17:18;;;;;;;;;;;;;;;;;;5063539;28;894;-68
2022/09/22 06:19:48;;;;;;;;;;;;;;;;;;5063729;28;894;-68
2022/09/22 06:22:13;;;;;;;;;;;;;;;;;;5046242;28;827;-68
2022/09/22 06:24:39;;;;;;;;;;;;;;;;;;5062788;28;1225;-68
2022/09/22 06:27:04;;;;;;;;;;;;;;;;;;5063454;28;930;-69
2022/09/22 06:29:29;;;;;;;;;;;;;;;;;;5063529;28;1898;-68
2022/09/22 06:31:54;;;;;;;;;;;;;;;;;;5063271;28;811;-69
2022/09/22 06:34:19;;;;;;;;;;;;;;;;;;5063264;28;1249;-68
2022/09/22 06:36:45;;;;;;;;;;;;;;;;;;5062545;28;889;-68
2022/09/22 06:39:10;;;;;;;;;;;;;;;;;;5063332;28;981;-68
2022/09/22 06:41:35;;;;;;;;;;;;;;;;;;5063353;28;822;-68
2022/09/22 06:44:01;;;;;;;;;;;;;;;;;;5045051;28;1319;-68
2022/09/22 06:46:27;;;;;;;;;;;;;;;;;;5062449;28;807;-68
2022/09/22 06:48:56;;;;;;;;;;;;;;;;;;5062995;28;1882;-69
2022/09/22 06:51:22;;;;;;;;;;;;;;;;;;5063109;28;874;-69
2022/09/22 06:53:47;;;;;;;;;;;;;;;;;;5062888;28;1218;-69
2022/09/22 06:56:13;;;;;;;;;;;;;;;;;;5062312;28;823;-69
2022/09/22 06:58:39;;;;;;;;;;;;;;;;;;5062965;28;1179;-69
2022/09/22 07:01:06;;;;;;;;;;;;;;;;;;5062349;28;810;-69
2022/09/22 07:03:32;;;;;;;;;;;;;;;;;;5044695;28;1381;-68
2022/09/22 07:05:59;;;;;;;;;;;;;;;;;;5044436;28;874;-69
2022/09/22 07:08:25;;;;;;;;;;;;;;;;;;5062835;28;1957;-69
2022/09/22 07:10:57;;;;;;;;;;;;;;;;;;5062842;28;854;-69
2022/09/22 07:13:23;;;;;;;;;;;;;;;;;;5062533;28;1175;-68
2022/09/22 07:15:48;;;;;;;;;;;;;;;;;;5061986;28;975;-69
2022/09/22 07:18:14;;;;;;;;;;;;;;;;;;5062815;28;827;-69
2022/09/22 07:20:39;;;;;;;;;;;;;;;;;;5062825;28;820;-69
2022/09/22 07:23:17;;;;;;;;;;;;;;;;;;5062749;28;862;-69
2022/09/22 07:25:43;;;;;;;;;;;;;;;;;;5061913;28;1226;-69
2022/09/22 07:28:11;;;;;;;;;;;;;;;;;;5062316;28;1955;-69
2022/09/22 07:30:39;;;;;;;;;;;;;;;;;;5062577;28;913;-69
2022/09/22 07:33:04;;;;;;;;;;;;;;;;;;5062297;28;848;-69
2022/09/22 07:35:30;;;;;;;;;;;;;;;;;;5061648;28;1128;-69
2022/09/22 07:37:55;;;;;;;;;;;;;;;;;;5062289;28;875;-68
2022/09/22 07:40:21;;;;;;;;;;;;;;;;;;5062425;28;841;-69
2022/09/22 07:42:49;;;;;;;;;;;;;;;;;;5062339;28;980;-68
2022/09/22 07:45:14;;;;;;;;;;;;;;;;;;5061687;28;1243;-69
2022/09/22 07:50:27;;;;;;;;;;;;;;;;;;5062767;28;640;-69
2022/09/22 07:52:53;;;;;;;;;;;;;;;;;;5062202;28;1037;-69
2022/09/22 07:55:21;;;;;;;;;;;;;;;;;;5061371;28;1132;-69
2022/09/22 07:57:51;;;;;;;;;;;;;;;;;;5062046;28;925;-69
2022/09/22 08:00:17;;;;;;;;;;;;;;;;;;5061860;28;831;-69
2022/09/22 08:02:43;;;;;;;;;;;;;;;;;;5062047;28;890;-69
2022/09/22 08:05:09;;;;;;;;;;;;;;;;;;5061150;28;1165;-69
2022/09/22 08:07:36;;;;;;;;;;;;;;;;;;5061976;28;846;-69
2022/09/22 08:10:01;;;;;;;;;;;;;;;;;;5061783;28;1897;-69
2022/09/22 08:12:27;;;;;;;;;;;;;;;;;;5060759;28;1025;-69
2022/09/22 08:14:52;;;;;;;;;;;;;;;;;;5060962;28;1239;-69
2022/09/22 08:17:18;;;;;;;;;;;;;;;;;;5061856;28;830;-70
2022/09/22 08:19:43;;;;;;;;;;;;;;;;;;5061674;28;869;-69
2022/09/22 08:22:09;;;;;;;;;;;;;;;;;;5061769;28;862;-69
2022/09/22 08:24:35;;;;;;;;;;;;;;;;;;5060801;28;1171;-69
2022/09/22 08:27:00;;;;;;;;;;;;;;;;;;5061737;28;803;-69
2022/09/22 08:29:25;;;;;;;;;;;;;;;;;;5061666;28;1874;-69
2022/09/22 08:31:51;;;;;;;;;;;;;;;;;;5061896;28;799;-69
2022/09/22 08:34:16;;;;;;;;;;;;;;;;;;5061597;28;1243;-69
2022/09/22 08:36:45;;;;;;;;;;;;;;;;;;5061100;28;795;-69
2022/09/22 08:39:10;;;;;;;;;;;;;;;;;;5061397;28;858;-69
2022/09/22 08:41:54;;;;;;;;;;;;;;;;;;5061466;28;1005;-69
2022/09/22 08:44:25;;;;;;;;;;;;;;;;;;5061181;28;1188;-69
2022/09/22 08:46:51;;;;;;;;;;;;;;;;;;5060731;28;890;-69
2022/09/22 08:52:17;;;;;;;;;;;;;;;;;;5061317;28;692;-69
2022/09/22 08:54:43;;;;;;;;;;;;;;;;;;5060399;28;1131;-69
2022/09/22 08:57:14;;;;;;;;;;;;;;;;;;5061206;28;870;-69
2022/09/22 08:59:44;;;;;;;;;;;;;;;;;;5061046;28;838;-69
2022/09/22 09:02:10;;;;;;;;;;;;;;;;;;5061234;28;823;-69
2022/09/22 09:04:53;;;;;;;;;;;;;;;;;;5060225;28;1159;-70
2022/09/22 09:07:26;;;;;;;;;;;;;;;;;;5061109;28;1016;-69
2022/09/22 09:10:06;;;;;;;;;;;;;;;;;;5060802;28;1902;-69
2022/09/22 09:12:50;;;;;;;;;;;;;;;;;;5061086;28;851;-69
2022/09/22 09:15:24;;;;;;;;;;;;;;;;;;5060084;28;1262;-69
2022/09/22 09:17:53;;;;;;;;;;;;;;;;;;5061000;28;883;-69
2022/09/22 09:20:25;;;;;;;;;;;;;;;;;;5060828;28;803;-69
2022/09/22 09:22:55;;;;;;;;;;;;;;;;;;5061278;28;1008;-69
2022/09/22 09:25:26;;;;;;;;;;;;;;;;;;5063794;28;1230;-69
2022/09/22 09:28:02;;;;;;;;;;;;;;;;;;5064476;28;1004;-69
2022/09/22 09:30:31;;;;;;;;;;;;;;;;;;5064325;28;846;-69
2022/09/22 09:33:00;;;;;;;;;;;;;;;;;;5064309;28;897;-66
2022/09/22 09:35:47;;;;;;;;;;;;;;;;;;5063703;28;1216;-69
2022/09/22 09:38:16;;;;;;;;;;;;;;;;;;5064230;28;810;-69
2022/09/22 09:40:44;;;;;;;;;;;;;;;;;;5064164;28;848;-69
2022/09/22 09:43:10;;;;;;;;;;;;;;;;;;5064290;28;847;-69
2022/09/22 09:45:44;;;;;;;;;;;;;;;;;;5063346;28;1159;-69
2022/09/22 09:48:19;;;;;;;;;;;;;;;;;;5063909;28;1882;-69
2022/09/22 09:50:44;;;;;;;;;;;;;;;;;;5063973;28;815;-69
2022/09/22 09:53:23;;;;;;;;;;;;;;;;;;5064068;28;878;-69
2022/09/22 09:55:49;;;;;;;;;;;;;;;;;;5063382;28;807;-69
2022/09/22 10:00:29;;;;;;;;;;;;;;;;;;5063996;28;807;-68
2022/09/22 10:00:59;;;;;;;;;;;;;;;;;;5063779;28;1174;-68
2022/09/22 10:03:35;;;;;;;;;;;;;;;;;;5063905;28;1132;-68
2022/09/22 10:06:05;;;;;;;;;;;;;;;;;;5063181;28;891;-68
2022/09/22 10:08:35;;;;;;;;;;;;;;;;;;5063548;28;1898;-68
2022/09/22 10:11:01;;;;;;;;;;;;;;;;;;5063666;28;849;-68
2022/09/22 10:13:33;;;;;;;;;;;;;;;;;;5063594;28;1143;-68
2022/09/22 10:16:00;;;;;;;;;;;;;;;;;;5063112;28;999;-68
2022/09/22 10:18:34;;;;;;;;;;;;;;;;;;5063643;28;831;-68
2022/09/22 10:21:13;;;;;;;;;;;;;;;;;;5063623;28;811;-68
2022/09/22 10:23:39;;;;;;;;;;;;;;;;;;5063537;28;1254;-68
2022/09/22 10:26:14;;;;;;;;;;;;;;;;;;5063233;28;830;-68
2022/09/22 10:28:39;;;;;;;;;;;;;;;;;;5063359;28;1952;-68
2022/09/22 10:31:04;;;;;;;;;;;;;;;;;;5063489;28;902;-68
2022/09/22 10:33:30;;;;;;;;;;;;;;;;;;5063390;28;1167;-68
2022/09/22 10:35:55;;;;;;;;;;;;;;;;;;5061628;28;787;-68
2022/09/22 10:38:25;;;;;;;;;;;;;;;;;;5063195;28;795;-68
2022/09/22 10:40:55;;;;;;;;;;;;;;;;;;5063565;28;858;-68
2022/09/22 10:43:42;;;;;;;;;;;;;;;;;;5063135;28;849;-67
2022/09/22 10:46:11;;;;;;;;;;;;;;;;;;5062600;28;822;-68
2022/09/22 10:49:08;;;;;;;;;;;;;;;;;;5062949;28;1897;-68
2022/09/22 10:51:56;;;;;;;;;;;;;;;;;;5018624;28;1145;-68
2022/09/22 10:54:27;;;;;;;;;;;;;;;;;;5062904;28;1223;-68
2022/09/22 10:56:55;;;;;;;;;;;;;;;;;;5063017;28;807;-68
2022/09/22 10:59:54;;;;;;;;;;;;;;;;;;5062911;28;997;-68
2022/09/22 11:02:48;;;;;;;;;;;;;;;;;;5019198;28;1142;-68
2022/09/22 11:12:15;;;;;;;;;;;;;;;;;;5062334;28;1186;-68
2022/09/22 11:14:02;;;;;;;;;;;;;;;;;;5062488;28;1258;-68
2022/09/22 11:16:46;;;;;;;;;;;;;;;;;;5062093;28;882;-68
2022/09/22 11:19:20;;;;;;;;;;;;;;;;;;5062702;28;1001;-68
2022/09/22 11:21:54;;;;;;;;;;;;;;;;;;5044648;28;916;-68
2022/09/22 11:24:36;;;;;;;;;;;;;;;;;;5062359;28;1209;-68
2022/09/22 11:27:02;;;;;;;;;;;;;;;;;;5062602;28;807;-68
2022/09/22 11:29:36;;;;;;;;;;;;;;;;;;5062437;28;1890;-68
2022/09/22 11:32:01;;;;;;;;;;;;;;;;;;5062491;28;871;-68
2022/09/22 11:34:42;;;;;;;;;;;;;;;;;;5061816;28;1180;-68
2022/09/22 11:37:25;;;;;;;;;;;;;;;;;;5062425;28;980;-68
2022/09/22 11:40:09;;;;;;;;;;;;;;;;;;5061618;28;843;-68
2022/09/22 11:42:47;;;;;;;;;;;;;;;;;;5062377;28;815;-68
2022/09/22 11:45:21;;;;;;;;;;;;;;;;;;5061432;28;1183;-68
2022/09/22 11:47:52;;;;;;;;;;;;;;;;;;5062036;28;791;-68
2022/09/22 11:50:17;;;;;;;;;;;;;;;;;;5062095;28;1952;-68
2022/09/22 11:52:53;;;;;;;;;;;;;;;;;;5062174;28;1116;-68
2022/09/22 11:55:37;;;;;;;;;;;;;;;;;;5061315;28;1251;-68
2022/09/22 11:58:12;;;;;;;;;;;;;;;;;;5061958;28;1180;-68
2022/09/22 12:00:41;;;;;;;;;;;;;;;;;;5061893;28;882;-68
2022/09/22 12:03:11;;;;;;;;;;;;;;;;;;5062085;28;996;-68
2022/09/22 12:05:47;;;;;;;;;;;;;;;;;;5060997;28;1167;-68
2022/09/22 12:08:15;;;;;;;;;;;;;;;;;;5061777;28;1975;-68
2022/09/22 12:10:43;;;;;;;;;;;;;;;;;;5061790;28;807;-68
2022/09/22 12:13:14;;;;;;;;;;;;;;;;;;5071824;22;3562;-66
2022/09/22 12:15:42;;;;;;;;;;;;;;;;;;5023394;28;1263;-67
2022/09/22 12:18:09;;;;;;;;;;;;;;;;;;5041732;28;811;-64
2022/09/22 12:20:56;;;;;;;;;;;;;;;;;;5041850;28;807;-64
2022/09/22 12:23:41;;;;;;;;;;;;;;;;;;5041648;28;1184;-64
2022/09/22 12:26:08;;;;;;;;;;;;;;;;;;5040940;28;1112;-64
2022/09/22 12:28:36;;;;;;;;;;;;;;;;;;5041794;28;1977;-67
2022/09/22 12:31:28;;;;;;;;;;;;;;;;;;5041582;28;843;-66
2022/09/22 12:33:54;;;;;;;;;;;;;;;;;;5017946;28;1237;-64
2022/09/22 12:36:31;;;;;;;;;;;;;;;;;;5040821;28;1067;-64
2022/09/22 12:39:06;;;;;;;;;;;;;;;;;;5041876;28;891;-65
2022/09/22 12:41:31;;;;;;;;;;;;;;;;;;5041385;28;1053;-65
2022/09/22 12:44:06;;;;;;;;;;;;;;;;;;5041312;28;1158;-66
2022/09/22 12:46:31;;;;;;;;;;;;;;;;;;5040706;28;1018;-66
2022/09/22 12:48:57;;;;;;;;;;;;;;;;;;5041552;28;1902;-65
2022/09/22 12:51:25;;;;;;;;;;;;;;;;;;5041293;28;1064;-66
2022/09/22 12:53:50;;;;;;;;;;;;;;;;;;5041524;28;1243;-65
2022/09/22 12:56:34;;;;;;;;;;;;;;;;;;5039334;28;1473;-66
2022/09/22 12:59:00;;;;;;;;;;;;;;;;;;5040443;28;899;-65
2022/09/22 13:01:32;;;;;;;;;;;;;;;;;;5041097;28;993;-66
2022/09/22 13:04:24;;;;;;;;;;;;;;;;;;5039809;28;1428;-65
2022/09/22 13:06:50;;;;;;;;;;;;;;;;;;5037795;28;1819;-66
2022/09/22 13:09:17;;;;;;;;;;;;;;;;;;5041002;28;1897;-66
2022/09/22 13:12:01;;;;;;;;;;;;;;;;;;5041180;28;795;-66
2022/09/22 13:14:45;;;;;;;;;;;;;;;;;;5040645;28;1160;-66
2022/09/22 13:17:29;;;;;;;;;;;;;;;;;;5040872;28;1001;-66
2022/09/22 13:19:54;;;;;;;;;;;;;;;;;;5040939;28;984;-66
2022/09/22 13:22:19;;;;;;;;;;;;;;;;;;5039580;28;1405;-66
2022/09/22 13:24:45;;;;;;;;;;;;;;;;;;5039035;28;1267;-66
2022/09/22 13:27:12;;;;;;;;;;;;;;;;;;5040779;28;993;-66
2022/09/22 13:29:38;;;;;;;;;;;;;;;;;;5040639;28;1969;-65
2022/09/22 13:32:13;;;;;;;;;;;;;;;;;;5040698;28;807;-65
2022/09/22 13:34:38;;;;;;;;;;;;;;;;;;5040061;28;1144;-65
2022/09/22 13:37:33;;;;;;;;;;;;;;;;;;5039484;28;1665;-65
2022/09/22 13:39:58;;;;;;;;;;;;;;;;;;5027339;28;1268;-65
2022/09/22 13:42:30;;;;;;;;;;;;;;;;;;5040721;28;856;-65
2022/09/22 13:45:01;;;;;;;;;;;;;;;;;;5040036;28;1318;-65
2022/09/22 13:47:26;;;;;;;;;;;;;;;;;;5040344;28;799;-65
2022/09/22 13:49:54;;;;;;;;;;;;;;;;;;5040627;28;1959;-66
2022/09/22 13:52:25;;;;;;;;;;;;;;;;;;5040422;28;787;-65
2022/09/22 13:54:52;;;;;;;;;;;;;;;;;;5038458;28;1299;-65
2022/09/22 13:57:19;;;;;;;;;;;;;;;;;;5040459;28;1061;-65
2022/09/22 13:59:45;;;;;;;;;;;;;;;;;;5040167;28;933;-65
2022/09/22 14:02:11;;;;;;;;;;;;;;;;;;5040306;28;807;-65
2022/09/22 14:04:36;;;;;;;;;;;;;;;;;;5038375;28;1148;-65
2022/09/22 14:07:08;;;;;;;;;;;;;;;;;;5040452;28;819;-65
2022/09/22 14:09:35;;;;;;;;;;;;;;;;;;5041595;28;1905;-65
2022/09/22 14:12:01;;;;;;;;;;;;;;;;;;5043632;28;902;-65
2022/09/22 14:14:27;;;;;;;;;;;;;;;;;;5041871;28;1234;-65
2022/09/22 14:16:52;;;;;;;;;;;;;;;;;;5043534;28;1114;-65
2022/09/22 14:19:20;;;;;;;;;;;;;;;;;;5043527;28;933;-65
2022/09/22 14:21:54;;;;;;;;;;;;;;;;;;5043437;28;831;-65
2022/09/22 14:24:19;;;;;;;;;;;;;;;;;;5043443;28;1153;-65
2022/09/22 14:26:46;;;;;;;;;;;;;;;;;;5041355;28;811;-65
2022/09/22 14:29:17;;;;;;;;;;;;;;;;;;5043313;28;1969;-65
2022/09/22 14:31:46;;;;;;;;;;;;;;;;;;5042126;28;936;-66
2022/09/22 14:34:17;;;;;;;;;;;;;;;;;;5043514;28;1168;-66
2022/09/22 14:36:43;;;;;;;;;;;;;;;;;;5042940;28;857;-66
2022/09/22 14:39:15;;;;;;;;;;;;;;;;;;5043247;28;953;-66
2022/09/22 14:41:48;;;;;;;;;;;;;;;;;;5043390;28;981;-66
2022/09/22 14:44:34;;;;;;;;;;;;;;;;;;5043265;28;1201;-66
2022/09/22 14:47:06;;;;;;;;;;;;;;;;;;5043019;28;834;-66
2022/09/22 14:49:38;;;;;;;;;;;;;;;;;;5043037;28;1906;-66
2022/09/22 14:52:06;;;;;;;;;;;;;;;;;;5043004;28;886;-66
2022/09/22 14:54:33;;;;;;;;;;;;;;;;;;5042675;28;1132;-66
2022/09/22 14:57:00;;;;;;;;;;;;;;;;;;5043141;28;819;-66
2022/09/22 15:04:56;;;;;;;;;;;;;;;;;;5042632;28;1216;-65
2022/09/22 15:07:28;;;;;;;;;;;;;;;;;;5042791;28;874;-65
2022/09/22 15:09:58;;;;;;;;;;;;;;;;;;5042725;28;1890;-66
2022/09/22 15:12:37;;;;;;;;;;;;;;;;;;5043003;28;1056;-66
2022/09/22 15:15:03;;;;;;;;;;;;;;;;;;5042133;28;859;-66
2022/09/22 15:20:21;;;;;;;;;;;;;;;;;;5042705;28;684;-64
2022/09/22 15:22:47;;;;;;;;;;;;;;;;;;5042317;28;1219;-64
2022/09/22 15:25:14;;;;;;;;;;;;;;;;;;5042022;28;858;-64
2022/09/22 15:27:39;;;;;;;;;;;;;;;;;;5042707;28;893;-65
2022/09/22 15:30:06;;;;;;;;;;;;;;;;;;5041036;28;1906;-66
2022/09/22 15:32:31;;;;;;;;;;;;;;;;;;5042582;28;1226;-66
2022/09/22 15:34:57;;;;;;;;;;;;;;;;;;5041633;28;807;-66
2022/09/22 15:37:22;;;;;;;;;;;;;;;;;;5042492;28;870;-66
2022/09/22 15:39:47;;;;;;;;;;;;;;;;;;5042150;28;819;-66
2022/09/22 15:42:13;;;;;;;;;;;;;;;;;;5041068;28;890;-66
2022/09/22 15:44:38;;;;;;;;;;;;;;;;;;5041489;28;1234;-66
2022/09/22 15:47:03;;;;;;;;;;;;;;;;;;5042342;28;775;-66
2022/09/22 15:49:32;;;;;;;;;;;;;;;;;;5042295;28;1906;-66
2022/09/22 15:51:57;;;;;;;;;;;;;;;;;;5042266;28;1005;-66
2022/09/22 15:54:23;;;;;;;;;;;;;;;;;;5041818;28;1232;-66
2022/09/22 15:56:50;;;;;;;;;;;;;;;;;;5042020;28;807;-66
2022/09/22 15:59:18;;;;;;;;;;;;;;;;;;5040748;28;1420;-66
2022/09/22 16:01:44;;;;;;;;;;;;;;;;;;5042001;28;827;-66
2022/09/22 16:04:09;;;;;;;;;;;;;;;;;;5041876;28;1235;-66
2022/09/22 16:06:34;;;;;;;;;;;;;;;;;;5041617;28;866;-66
2022/09/22 16:09:00;;;;;;;;;;;;;;;;;;5041814;28;1967;-66
2022/09/22 16:11:29;;;;;;;;;;;;;;;;;;5041888;28;827;-66
2022/09/22 16:13:59;;;;;;;;;;;;;;;;;;5041642;28;1239;-66
2022/09/22 16:16:27;;;;;;;;;;;;;;;;;;5041204;28;913;-67
2022/09/22 16:18:52;;;;;;;;;;;;;;;;;;5041747;28;863;-66
2022/09/22 16:21:22;;;;;;;;;;;;;;;;;;5041644;28;878;-66
2022/09/22 16:23:47;;;;;;;;;;;;;;;;;;5041842;28;1284;-66
2022/09/22 16:26:13;;;;;;;;;;;;;;;;;;5039759;28;937;-66
2022/09/22 16:28:38;;;;;;;;;;;;;;;;;;5041618;28;1963;-66
2022/09/22 16:31:04;;;;;;;;;;;;;;;;;;5041415;28;811;-66
2022/09/22 16:33:29;;;;;;;;;;;;;;;;;;5040589;28;1414;-65
2022/09/22 16:35:54;;;;;;;;;;;;;;;;;;5041028;28;830;-66
2022/09/22 16:38:20;;;;;;;;;;;;;;;;;;5041579;28;862;-66
2022/09/22 16:40:59;;;;;;;;;;;;;;;;;;5034916;28;1034;-65
2022/09/22 16:43:24;;;;;;;;;;;;;;;;;;5021559;28;1145;-66
2022/09/22 16:48:38;;;;;;;;;;;;;;;;;;5021639;28;1954;-65
2022/09/22 16:51:03;;;;;;;;;;;;;;;;;;5021493;28;788;-65
2022/09/22 16:53:29;;;;;;;;;;;;;;;;;;5021594;28;1255;-65
2022/09/22 16:55:54;;;;;;;;;;;;;;;;;;5020796;28;795;-66
2022/09/22 16:58:19;;;;;;;;;;;;;;;;;;5021137;28;993;-65
2022/09/22 17:00:44;;;;;;;;;;;;;;;;;;5021139;28;910;-66
2022/09/22 17:03:09;;;;;;;;;;;;;;;;;;5021427;28;1173;-65
2022/09/22 17:05:36;;;;;;;;;;;;;;;;;;5020271;28;1012;-65
2022/09/22 17:08:02;;;;;;;;;;;;;;;;;;5021178;28;808;-65
2022/09/22 17:10:34;;;;;;;;;;;;;;;;;;5020967;28;1894;-65
2022/09/22 17:13:00;;;;;;;;;;;;;;;;;;5021213;28;1251;-65
2022/09/22 17:15:25;;;;;;;;;;;;;;;;;;5020523;28;807;-65
2022/09/22 17:17:51;;;;;;;;;;;;;;;;;;5021262;28;937;-65
2022/09/22 17:20:16;;;;;;;;;;;;;;;;;;5020944;28;827;-65
2022/09/22 17:22:41;;;;;;;;;;;;;;;;;;5021077;28;1182;-65
2022/09/22 17:25:07;;;;;;;;;;;;;;;;;;5020389;28;834;-65
2022/09/22 17:27:32;;;;;;;;;;;;;;;;;;5021106;28;958;-65
2022/09/22 17:29:57;;;;;;;;;;;;;;;;;;5021123;28;1953;-65
2022/09/22 17:32:26;;;;;;;;;;;;;;;;;;5019745;28;1111;-65
2022/09/22 17:34:51;;;;;;;;;;;;;;;;;;5020407;28;1164;-65
2022/09/22 17:37:19;;;;;;;;;;;;;;;;;;5020954;28;910;-66
2022/09/22 17:39:44;;;;;;;;;;;;;;;;;;5020961;28;866;-65
2022/09/22 17:42:09;;;;;;;;;;;;;;;;;;5020850;28;819;-65
2022/09/22 17:44:35;;;;;;;;;;;;;;;;;;5021396;28;1262;-65
2022/09/22 17:55:05;;;;;;;;;;;;;;;;;;5024108;28;1243;-66